createdAt,value
2019-05-11T00:00:15.366Z,94.1406
2019-05-11T00:00:27.246Z,94.0369
2019-05-11T00:00:36.915Z,93.7317
2019-05-11T00:00:45.428Z,93.4265
2019-05-11T00:00:57.480Z,93.1152
2019-05-11T00:01:17.088Z,92.9688
2019-05-11T00:01:26.793Z,92.8711
2019-05-11T00:01:36.489Z,92.8711
2019-05-11T00:01:46.265Z,92.5598
2019-05-11T00:01:55.964Z,92.3584
2019-05-11T00:02:16.516Z,91.6016
2019-05-11T00:02:26.258Z,91.4978
2019-05-11T00:02:36.026Z,91.3940
2019-05-11T00:02:45.756Z,91.3940
2019-05-11T00:02:55.456Z,91.6992
2019-05-11T00:03:07.287Z,92.1509
2019-05-11T00:03:17.029Z,92.7673
2019-05-11T00:03:26.667Z,93.0725
2019-05-11T00:03:37.370Z,93.3777
2019-05-11T00:03:47.112Z,93.5852
2019-05-11T00:03:56.812Z,93.8354
2019-05-11T00:04:06.484Z,94.0369
2019-05-11T00:04:16.198Z,94.2444
2019-05-11T00:04:26.870Z,94.4458
2019-05-11T00:04:36.555Z,94.5496
2019-05-11T00:04:46.282Z,94.6960
2019-05-11T00:04:55.958Z,94.8975
2019-05-11T00:05:05.646Z,94.8975
2019-05-11T00:05:17.525Z,94.5923
2019-05-11T00:05:27.192Z,94.3909
2019-05-11T00:05:36.882Z,94.2444
2019-05-11T00:05:46.582Z,94.1406
2019-05-11T00:05:57.296Z,94.1406
2019-05-11T00:06:06.986Z,93.9331
2019-05-11T00:06:16.661Z,93.5242
2019-05-11T00:06:37.449Z,92.9138
2019-05-11T00:06:47.325Z,92.6636
2019-05-11T00:06:57.025Z,92.5598
2019-05-11T00:07:05.795Z,92.4622
2019-05-11T00:07:15.486Z,92.3584
2019-05-11T00:07:27.322Z,92.2546
2019-05-11T00:07:37.066Z,92.2546
2019-05-11T00:07:46.804Z,92.2546
2019-05-11T00:07:56.623Z,91.8457
2019-05-11T00:08:07.538Z,91.5405
2019-05-11T00:08:17.226Z,91.5405
2019-05-11T00:08:25.758Z,91.7419
2019-05-11T00:08:35.476Z,91.6016
2019-05-11T00:08:47.332Z,91.3940
2019-05-11T00:08:56.029Z,91.2903
2019-05-11T00:09:05.720Z,91.3940
2019-05-11T00:09:15.395Z,91.8457
2019-05-11T00:09:27.249Z,92.0532
2019-05-11T00:09:36.923Z,92.0532
2019-05-11T00:09:57.608Z,91.9495
2019-05-11T00:09:58.542Z,91.8457
2019-05-11T00:10:06.247Z,91.8457
2019-05-11T00:10:15.936Z,92.0532
2019-05-11T00:10:25.913Z,92.3584
2019-05-11T00:10:35.566Z,92.5598
2019-05-11T00:10:47.414Z,93.0725
2019-05-11T00:10:57.098Z,93.4814
2019-05-11T00:11:06.757Z,93.6890
2019-05-11T00:11:16.424Z,93.9331
2019-05-11T00:11:26.104Z,94.1406
2019-05-11T00:11:35.868Z,94.3420
2019-05-11T00:11:46.631Z,94.2444
2019-05-11T00:11:56.359Z,94.2444
2019-05-11T00:12:06.669Z,94.3420
2019-05-11T00:12:19.690Z,94.6960
2019-05-11T00:12:27.950Z,94.8975
2019-05-11T00:12:36.529Z,95.2087
2019-05-11T00:12:47.317Z,95.4102
2019-05-11T00:12:56.171Z,95.5139
2019-05-11T00:13:06.941Z,95.8679
2019-05-11T00:13:16.752Z,96.0693
2019-05-11T00:13:26.311Z,96.2769
2019-05-11T00:13:37.124Z,96.5820
2019-05-11T00:13:46.961Z,96.7896
2019-05-11T00:13:56.774Z,96.8933
2019-05-11T00:14:06.522Z,96.8933
2019-05-11T00:14:16.282Z,96.7896
2019-05-11T00:14:25.871Z,96.8933
2019-05-11T00:14:35.660Z,96.7896
2019-05-11T00:14:45.474Z,96.6858
2019-05-11T00:14:56.290Z,96.5820
2019-05-11T00:15:07.049Z,96.8933
2019-05-11T00:15:15.973Z,96.9910
2019-05-11T00:15:26.801Z,97.1985
2019-05-11T00:15:36.568Z,97.3022
2019-05-11T00:15:46.343Z,96.8445
2019-05-11T00:16:01.486Z,96.4355
2019-05-11T00:16:06.661Z,96.3318
2019-05-11T00:16:19.062Z,96.3318
2019-05-11T00:16:26.773Z,96.2341
2019-05-11T00:16:36.463Z,96.1304
2019-05-11T00:16:46.201Z,95.8191
2019-05-11T00:16:55.924Z,95.4102
2019-05-11T00:17:05.637Z,95.2637
2019-05-11T00:17:15.364Z,95.4712
2019-05-11T00:17:27.201Z,95.4712
2019-05-11T00:17:36.864Z,95.1660
2019-05-11T00:17:46.593Z,94.8547
2019-05-11T00:17:56.255Z,94.7510
2019-05-11T00:18:05.997Z,94.5496
2019-05-11T00:18:16.706Z,94.3420
2019-05-11T00:18:25.393Z,94.3420
2019-05-11T00:18:37.522Z,94.3420
2019-05-11T00:18:47.233Z,94.4458
2019-05-11T00:18:56.974Z,94.3420
2019-05-11T00:19:06.684Z,94.0369
2019-05-11T00:19:16.381Z,93.6890
2019-05-11T00:19:26.109Z,93.1763
2019-05-11T00:19:35.892Z,92.7673
2019-05-11T00:19:45.594Z,92.5598
2019-05-11T00:19:56.263Z,92.5598
2019-05-11T00:20:05.801Z,92.6636
2019-05-11T00:20:15.527Z,92.8711
2019-05-11T00:20:27.426Z,93.1763
2019-05-11T00:20:37.355Z,93.7866
2019-05-11T00:20:47.054Z,94.2993
2019-05-11T00:20:56.745Z,94.6045
2019-05-11T00:21:06.450Z,94.9158
2019-05-11T00:21:16.212Z,95.0195
2019-05-11T00:21:27.149Z,95.1172
2019-05-11T00:21:36.870Z,94.8120
2019-05-11T00:21:46.649Z,93.8904
2019-05-11T00:21:57.359Z,92.9688
2019-05-11T00:22:07.139Z,92.8711
2019-05-11T00:22:16.876Z,92.7673
2019-05-11T00:22:26.872Z,92.6636
2019-05-11T00:22:36.550Z,92.4622
2019-05-11T00:22:46.245Z,91.8030
2019-05-11T00:22:55.943Z,91.0889
2019-05-11T00:23:05.671Z,90.6799
2019-05-11T00:23:17.523Z,90.6799
2019-05-11T00:23:27.349Z,91.6992
2019-05-11T00:23:37.075Z,92.5171
2019-05-11T00:23:46.783Z,92.1082
2019-05-11T00:23:56.678Z,91.3940
2019-05-11T00:24:06.383Z,90.6799
2019-05-11T00:24:17.045Z,90.2283
2019-05-11T00:24:29.192Z,90.2283
2019-05-11T00:24:35.582Z,90.3320
2019-05-11T00:24:56.107Z,89.7156
2019-05-11T00:25:06.941Z,89.8193
2019-05-11T00:25:16.595Z,89.9231
2019-05-11T00:25:26.391Z,89.5142
2019-05-11T00:25:36.314Z,89.5142
2019-05-11T00:25:46.278Z,90.3320
2019-05-11T00:25:55.977Z,91.2476
2019-05-11T00:26:05.945Z,91.7603
2019-05-11T00:26:15.613Z,92.2729
2019-05-11T00:26:26.501Z,92.8833
2019-05-11T00:26:36.207Z,93.3960
2019-05-11T00:26:46.887Z,93.4387
2019-05-11T00:26:56.544Z,93.7439
2019-05-11T00:27:17.091Z,93.9514
2019-05-11T00:27:26.803Z,93.3350
2019-05-11T00:27:36.477Z,92.5171
2019-05-11T00:27:46.214Z,92.1082
2019-05-11T00:27:56.000Z,91.8030
2019-05-11T00:28:05.851Z,92.2119
2019-05-11T00:28:26.373Z,92.5171
2019-05-11T00:28:37.255Z,92.3157
2019-05-11T00:28:50.158Z,92.4194
2019-05-11T00:28:57.024Z,92.3157
2019-05-11T00:29:06.708Z,92.7246
2019-05-11T00:29:26.136Z,93.8477
2019-05-11T00:29:37.125Z,94.0979
2019-05-11T00:29:45.812Z,93.4814
2019-05-11T00:29:55.568Z,92.4194
2019-05-11T00:30:26.837Z,91.6016
2019-05-11T00:30:36.532Z,91.8030
2019-05-11T00:30:46.221Z,91.9067
2019-05-11T00:30:55.912Z,91.6992
2019-05-11T00:31:05.623Z,91.4978
2019-05-11T00:31:17.479Z,91.4978
2019-05-11T00:31:27.180Z,91.3940
2019-05-11T00:31:36.882Z,91.3940
2019-05-11T00:31:46.590Z,91.1926
2019-05-11T00:31:56.276Z,90.9851
2019-05-11T00:32:07.157Z,90.5762
2019-05-11T00:32:17.115Z,90.2710
2019-05-11T00:32:26.751Z,90.0208
2019-05-11T00:32:36.437Z,89.9231
2019-05-11T00:32:46.179Z,89.9231
2019-05-11T00:32:57.083Z,90.0208
2019-05-11T00:33:06.733Z,90.0208
2019-05-11T00:33:16.453Z,90.1245
2019-05-11T00:33:26.153Z,90.3320
2019-05-11T00:33:35.843Z,90.7410
2019-05-11T00:33:45.562Z,90.5334
2019-05-11T00:33:58.576Z,90.5334
2019-05-11T00:34:05.510Z,90.5334
2019-05-11T00:34:18.325Z,90.3320
2019-05-11T00:34:25.806Z,90.1245
2019-05-11T00:34:35.505Z,90.0208
2019-05-11T00:34:47.376Z,90.1245
2019-05-11T00:34:57.087Z,90.4297
2019-05-11T00:35:06.735Z,90.5334
2019-05-11T00:35:16.413Z,90.6799
2019-05-11T00:35:27.117Z,90.8813
2019-05-11T00:35:35.615Z,91.4978
2019-05-11T00:35:47.466Z,91.4978
2019-05-11T00:35:57.186Z,91.6992
2019-05-11T00:36:06.914Z,91.6992
2019-05-11T00:36:16.634Z,91.0889
2019-05-11T00:36:26.355Z,90.6799
2019-05-11T00:36:37.035Z,90.3748
2019-05-11T00:36:52.257Z,90.0635
2019-05-11T00:36:57.204Z,89.8621
2019-05-11T00:37:06.899Z,89.6118
2019-05-11T00:37:16.887Z,89.6118
2019-05-11T00:37:26.585Z,89.5142
2019-05-11T00:37:36.245Z,89.4104
2019-05-11T00:37:45.989Z,89.5142
2019-05-11T00:37:55.663Z,89.5142
2019-05-11T00:38:07.498Z,89.6118
2019-05-11T00:38:17.187Z,89.5142
2019-05-11T00:38:26.876Z,89.5142
2019-05-11T00:38:36.568Z,89.5142
2019-05-11T00:38:46.264Z,89.6118
2019-05-11T00:38:55.928Z,89.6118
2019-05-11T00:39:05.645Z,89.5142
2019-05-11T00:39:17.518Z,89.5142
2019-05-11T00:39:27.167Z,89.6118
2019-05-11T00:39:36.886Z,89.6118
2019-05-11T00:39:46.557Z,89.6118
2019-05-11T00:39:56.214Z,89.7156
2019-05-11T00:40:14.267Z,89.7156
2019-05-11T00:40:16.215Z,89.8193
2019-05-11T00:40:27.070Z,90.1245
2019-05-11T00:40:35.593Z,90.7837
2019-05-11T00:40:45.666Z,91.4978
2019-05-11T00:40:55.400Z,92.1082
2019-05-11T00:41:07.246Z,92.5171
2019-05-11T00:41:16.067Z,92.4194
2019-05-11T00:41:25.810Z,92.5171
2019-05-11T00:41:36.544Z,92.7673
2019-05-11T00:41:46.294Z,93.0725
2019-05-11T00:41:55.964Z,93.4814
2019-05-11T00:42:05.724Z,93.7866
2019-05-11T00:42:16.724Z,93.9941
2019-05-11T00:42:26.404Z,93.9941
2019-05-11T00:42:36.091Z,94.0979
2019-05-11T00:42:45.798Z,94.2993
2019-05-11T00:42:55.500Z,94.4458
2019-05-11T00:43:06.310Z,94.5496
2019-05-11T00:43:17.531Z,94.9585
2019-05-11T00:43:26.260Z,95.0623
2019-05-11T00:43:35.938Z,94.6533
2019-05-11T00:43:45.623Z,94.1406
2019-05-11T00:43:57.451Z,94.4458
2019-05-11T00:44:07.094Z,94.7510
2019-05-11T00:44:15.776Z,95.0623
2019-05-11T00:44:25.531Z,95.2637
2019-05-11T00:44:37.399Z,95.4712
2019-05-11T00:44:47.468Z,95.4712
2019-05-11T00:44:57.184Z,95.5750
2019-05-11T00:45:07.131Z,95.4712
2019-05-11T00:45:15.842Z,95.1660
2019-05-11T00:45:35.364Z,95.3674
2019-05-11T00:45:47.257Z,95.5139
2019-05-11T00:45:56.982Z,95.1660
2019-05-11T00:46:06.708Z,95.1660
2019-05-11T00:46:16.377Z,95.4102
2019-05-11T00:46:26.079Z,95.6726
2019-05-11T00:46:35.765Z,96.0266
2019-05-11T00:46:45.472Z,96.2341
2019-05-11T00:46:57.337Z,96.4355
2019-05-11T00:47:05.853Z,96.5393
2019-05-11T00:47:15.536Z,96.5393
2019-05-11T00:47:26.238Z,96.5393
2019-05-11T00:47:35.941Z,96.4355
2019-05-11T00:47:51.302Z,95.9229
2019-05-11T00:47:56.009Z,95.9229
2019-05-11T00:48:05.662Z,95.8191
2019-05-11T00:48:17.521Z,95.7214
2019-05-11T00:48:26.196Z,95.2087
2019-05-11T00:48:35.896Z,94.5496
2019-05-11T00:48:45.648Z,94.4458
2019-05-11T00:48:57.512Z,94.8547
2019-05-11T00:49:07.224Z,94.9585
2019-05-11T00:49:16.926Z,94.0369
2019-05-11T00:49:25.601Z,93.1152
2019-05-11T00:49:37.477Z,92.2546
2019-05-11T00:49:47.165Z,91.8457
2019-05-11T00:49:56.823Z,91.7419
2019-05-11T00:50:06.515Z,91.8457
2019-05-11T00:50:17.392Z,92.0532
2019-05-11T00:50:38.929Z,92.1509
2019-05-11T00:50:39.701Z,92.2546
2019-05-11T00:50:45.370Z,92.2546
2019-05-11T00:50:57.232Z,91.8457
2019-05-11T00:51:06.918Z,91.9495
2019-05-11T00:51:16.578Z,92.5598
2019-05-11T00:51:26.272Z,93.3777
2019-05-11T00:51:35.932Z,93.8904
2019-05-11T00:51:45.641Z,94.1956
2019-05-11T00:51:55.603Z,94.1956
2019-05-11T00:52:07.491Z,94.0979
2019-05-11T00:52:17.181Z,94.0979
2019-05-11T00:52:26.864Z,94.5068
2019-05-11T00:52:37.667Z,94.9158
2019-05-11T00:52:45.689Z,95.2209
2019-05-11T00:53:07.207Z,95.8801
2019-05-11T00:53:17.049Z,95.9839
2019-05-11T00:53:26.168Z,96.0815
2019-05-11T00:53:35.906Z,96.1853
2019-05-11T00:53:46.842Z,96.3928
2019-05-11T00:53:56.548Z,96.5942
2019-05-11T00:54:06.248Z,96.6431
2019-05-11T00:54:15.973Z,96.7407
2019-05-11T00:54:25.712Z,96.7407
2019-05-11T00:54:35.397Z,96.6431
2019-05-11T00:54:47.267Z,96.3318
2019-05-11T00:54:56.975Z,96.1304
2019-05-11T00:55:06.909Z,96.3318
2019-05-11T00:55:16.620Z,96.2341
2019-05-11T00:55:26.329Z,95.6177
2019-05-11T00:55:36.048Z,94.8975
2019-05-11T00:55:45.747Z,94.3909
2019-05-11T00:55:56.519Z,94.3420
2019-05-11T00:56:06.185Z,94.6533
2019-05-11T00:56:15.905Z,95.2637
2019-05-11T00:56:25.595Z,95.6726
2019-05-11T00:56:37.480Z,95.7764
2019-05-11T00:56:47.218Z,95.4712
2019-05-11T00:56:56.946Z,95.3674
2019-05-11T00:57:06.647Z,95.3674
2019-05-11T00:57:16.569Z,95.2637
2019-05-11T00:57:26.553Z,94.9585
2019-05-11T00:57:36.273Z,94.5496
2019-05-11T00:57:45.977Z,94.5496
2019-05-11T00:57:55.705Z,94.6533
2019-05-11T00:58:05.420Z,94.8547
2019-05-11T00:58:17.301Z,95.0623
2019-05-11T00:58:27.400Z,95.2637
2019-05-11T00:58:37.097Z,94.7510
2019-05-11T00:58:50.804Z,94.3420
2019-05-11T00:58:56.426Z,94.0369
2019-05-11T00:59:19.818Z,94.2444
2019-05-11T00:59:21.662Z,94.4458
2019-05-11T00:59:26.686Z,94.6533
2019-05-11T00:59:36.363Z,94.7510
2019-05-11T00:59:46.161Z,94.5496
2019-05-11T00:59:55.844Z,94.4458
2019-05-11T01:00:06.500Z,94.5496
2019-05-11T01:00:16.196Z,94.5496
2019-05-11T01:00:25.859Z,94.4458
2019-05-11T01:00:35.524Z,94.1406
2019-05-11T01:00:47.374Z,93.8354
2019-05-11T01:01:05.803Z,93.8354
2019-05-11T01:01:16.500Z,94.0369
2019-05-11T01:01:26.184Z,94.0369
2019-05-11T01:01:35.859Z,94.0369
2019-05-11T01:01:45.782Z,94.0369
2019-05-11T01:02:05.499Z,93.7866
2019-05-11T01:02:17.399Z,93.5242
2019-05-11T01:02:26.103Z,93.4814
2019-05-11T01:02:35.860Z,93.4814
2019-05-11T01:02:45.571Z,93.4814
2019-05-11T01:03:06.147Z,93.6890
2019-05-11T01:03:15.829Z,93.4814
2019-05-11T01:03:25.591Z,93.4814
2019-05-11T01:03:36.472Z,93.4814
2019-05-11T01:03:55.983Z,94.0979
2019-05-11T01:04:05.720Z,94.5068
2019-05-11T01:04:15.574Z,94.8120
2019-05-11T01:04:27.516Z,94.7083
2019-05-11T01:04:37.235Z,94.0979
2019-05-11T01:04:46.924Z,93.4814
2019-05-11T01:04:55.649Z,93.0725
2019-05-11T01:05:07.546Z,93.0725
2019-05-11T01:05:17.267Z,93.0725
2019-05-11T01:05:26.948Z,92.9688
2019-05-11T01:05:36.672Z,92.5598
2019-05-11T01:05:46.405Z,92.4622
2019-05-11T01:06:16.637Z,91.8457
2019-05-11T01:06:26.325Z,91.8457
2019-05-11T01:06:36.074Z,91.7419
2019-05-11T01:06:45.805Z,91.8457
2019-05-11T01:06:55.535Z,91.8030
2019-05-11T01:07:07.479Z,91.8030
2019-05-11T01:07:17.195Z,91.8030
2019-05-11T01:07:30.188Z,91.8030
2019-05-11T01:07:36.849Z,91.9067
2019-05-11T01:07:45.384Z,91.8030
2019-05-11T01:08:05.863Z,91.9067
2019-05-11T01:08:15.544Z,91.9067
2019-05-11T01:08:25.657Z,92.0105
2019-05-11T01:08:37.489Z,92.4622
2019-05-11T01:08:47.189Z,92.7673
2019-05-11T01:08:56.859Z,92.4622
2019-05-11T01:09:05.515Z,92.0532
2019-05-11T01:09:16.417Z,91.8030
2019-05-11T01:09:26.280Z,91.6016
2019-05-11T01:09:36.074Z,91.3940
2019-05-11T01:09:45.773Z,91.4978
2019-05-11T01:09:55.447Z,92.0105
2019-05-11T01:10:21.872Z,92.8284
2019-05-11T01:10:23.669Z,93.2373
2019-05-11T01:10:41.150Z,93.6462
2019-05-11T01:10:42.006Z,94.0552
2019-05-11T01:10:46.360Z,94.4031
2019-05-11T01:10:56.060Z,94.6045
2019-05-11T01:11:05.707Z,94.6045
2019-05-11T01:11:15.409Z,94.4031
2019-05-11T01:11:27.293Z,94.7083
2019-05-11T01:11:36.956Z,93.9941
2019-05-11T01:11:47.620Z,93.2800
2019-05-11T01:11:58.287Z,92.9688
2019-05-11T01:12:05.779Z,92.8711
2019-05-11T01:12:15.529Z,92.7673
2019-05-11T01:12:27.430Z,92.9688
2019-05-11T01:12:37.181Z,93.2800
2019-05-11T01:12:46.888Z,93.5852
2019-05-11T01:12:56.537Z,93.8904
2019-05-11T01:13:07.217Z,93.9941
2019-05-11T01:13:16.948Z,93.8904
2019-05-11T01:13:26.809Z,93.6890
2019-05-11T01:13:36.504Z,93.2800
2019-05-11T01:13:46.221Z,92.5598
2019-05-11T01:13:55.935Z,91.7419
2019-05-11T01:14:05.658Z,91.3330
2019-05-11T01:14:18.616Z,91.1316
2019-05-11T01:14:26.180Z,91.2292
2019-05-11T01:14:35.895Z,91.4368
2019-05-11T01:14:45.608Z,91.8457
2019-05-11T01:14:57.511Z,92.3584
2019-05-11T01:15:07.206Z,92.4622
2019-05-11T01:15:26.599Z,92.0532
2019-05-11T01:15:36.335Z,92.0532
2019-05-11T01:15:46.117Z,92.1509
2019-05-11T01:15:55.787Z,92.0532
2019-05-11T01:16:05.448Z,91.8457
2019-05-11T01:16:16.353Z,91.8457
2019-05-11T01:16:26.059Z,91.1926
2019-05-11T01:16:46.661Z,90.0635
2019-05-11T01:16:56.358Z,89.9658
2019-05-11T01:17:06.043Z,89.9658
2019-05-11T01:17:15.746Z,89.9658
2019-05-11T01:17:25.492Z,89.9658
2019-05-11T01:17:46.120Z,89.9658
2019-05-11T01:17:57.008Z,89.9658
2019-05-11T01:18:06.723Z,90.3748
2019-05-11T01:18:16.418Z,90.7837
2019-05-11T01:18:26.119Z,91.2903
2019-05-11T01:18:35.947Z,91.6992
2019-05-11T01:18:45.618Z,91.9067
2019-05-11T01:18:57.484Z,92.1082
2019-05-11T01:19:06.219Z,92.0105
2019-05-11T01:19:15.909Z,91.8030
2019-05-11T01:19:31.041Z,91.6992
2019-05-11T01:19:35.740Z,91.6992
2019-05-11T01:19:45.400Z,91.9067
2019-05-11T01:20:05.927Z,92.2119
2019-05-11T01:20:18.575Z,91.9067
2019-05-11T01:20:26.946Z,91.6016
2019-05-11T01:20:35.450Z,91.5405
2019-05-11T01:20:47.319Z,91.8457
2019-05-11T01:20:55.845Z,92.0105
2019-05-11T01:21:05.601Z,92.3584
2019-05-11T01:21:17.517Z,92.4622
2019-05-11T01:21:27.200Z,92.5598
2019-05-11T01:21:36.879Z,92.6636
2019-05-11T01:21:57.417Z,92.7673
2019-05-11T01:22:07.097Z,92.7673
2019-05-11T01:22:16.769Z,92.8711
2019-05-11T01:22:26.476Z,93.0725
2019-05-11T01:22:36.166Z,93.3777
2019-05-11T01:22:45.866Z,93.5852
2019-05-11T01:22:55.739Z,93.4814
2019-05-11T01:23:05.389Z,93.4814
2019-05-11T01:23:17.511Z,93.3777
2019-05-11T01:23:27.582Z,93.3777
2019-05-11T01:23:37.316Z,93.7866
2019-05-11T01:23:46.999Z,94.0979
2019-05-11T01:23:57.705Z,94.2993
2019-05-11T01:24:07.461Z,94.4031
2019-05-11T01:24:17.149Z,94.4031
2019-05-11T01:24:26.846Z,94.2993
2019-05-11T01:24:35.580Z,93.6890
2019-05-11T01:24:56.165Z,93.1152
2019-05-11T01:25:05.859Z,93.0115
2019-05-11T01:25:15.607Z,92.9138
2019-05-11T01:25:27.505Z,92.7063
2019-05-11T01:25:37.237Z,92.7063
2019-05-11T01:25:45.946Z,92.7063
2019-05-11T01:25:55.646Z,92.5598
2019-05-11T01:26:10.755Z,92.2546
2019-05-11T01:26:15.460Z,92.2546
2019-05-11T01:26:26.326Z,92.2546
2019-05-11T01:26:36.004Z,92.2546
2019-05-11T01:26:46.679Z,92.1509
2019-05-11T01:26:56.348Z,92.1509
2019-05-11T01:27:05.653Z,92.0532
2019-05-11T01:27:17.354Z,91.8457
2019-05-11T01:27:27.032Z,91.7419
2019-05-11T01:27:36.707Z,91.7419
2019-05-11T01:27:46.371Z,91.8457
2019-05-11T01:27:56.049Z,92.0532
2019-05-11T01:28:05.773Z,92.1509
2019-05-11T01:28:15.440Z,92.1509
2019-05-11T01:28:27.332Z,92.2546
2019-05-11T01:28:37.092Z,92.3584
2019-05-11T01:28:52.325Z,92.6636
2019-05-11T01:28:56.785Z,92.7673
2019-05-11T01:29:08.514Z,92.9688
2019-05-11T01:29:16.030Z,93.0725
2019-05-11T01:29:25.682Z,93.0725
2019-05-11T01:29:35.388Z,93.1763
2019-05-11T01:29:46.069Z,93.1763
2019-05-11T01:29:55.757Z,93.2800
2019-05-11T01:30:05.413Z,93.3777
2019-05-11T01:30:17.240Z,93.5852
2019-05-11T01:30:26.903Z,93.6890
2019-05-11T01:30:38.749Z,93.6890
2019-05-11T01:30:45.487Z,93.6890
2019-05-11T01:30:57.341Z,93.7317
2019-05-11T01:31:07.029Z,93.5242
2019-05-11T01:31:16.689Z,93.4265
2019-05-11T01:31:37.237Z,93.4265
2019-05-11T01:31:46.919Z,93.4265
2019-05-11T01:31:56.577Z,93.5242
2019-05-11T01:32:06.249Z,93.7317
2019-05-11T01:32:15.957Z,93.8354
2019-05-11T01:32:25.649Z,94.0369
2019-05-11T01:32:48.166Z,94.2444
2019-05-11T01:32:55.682Z,94.2444
2019-05-11T01:33:05.362Z,94.3420
2019-05-11T01:33:16.070Z,94.3420
2019-05-11T01:33:25.806Z,94.3420
2019-05-11T01:33:35.528Z,94.3420
2019-05-11T01:33:47.386Z,94.3420
2019-05-11T01:33:57.038Z,94.4458
2019-05-11T01:34:06.746Z,94.4458
2019-05-11T01:34:16.417Z,94.3420
2019-05-11T01:34:26.112Z,94.2444
2019-05-11T01:34:35.772Z,94.2444
2019-05-11T01:34:45.480Z,94.2444
2019-05-11T01:35:06.631Z,94.2444
2019-05-11T01:35:16.571Z,94.2444
2019-05-11T01:35:26.293Z,94.2444
2019-05-11T01:35:35.962Z,94.1406
2019-05-11T01:35:45.640Z,94.0369
2019-05-11T01:35:57.478Z,94.1406
2019-05-11T01:36:15.802Z,94.1406
2019-05-11T01:36:25.465Z,94.1406
2019-05-11T01:36:37.320Z,94.1406
2019-05-11T01:36:47.028Z,94.1406
2019-05-11T01:36:56.713Z,94.2444
2019-05-11T01:37:06.395Z,94.3420
2019-05-11T01:37:17.214Z,94.4885
2019-05-11T01:37:26.921Z,94.5923
2019-05-11T01:37:36.631Z,94.7510
2019-05-11T01:37:46.387Z,95.0623
2019-05-11T01:37:56.079Z,95.3125
2019-05-11T01:38:05.768Z,95.5750
2019-05-11T01:38:15.479Z,95.9229
2019-05-11T01:38:36.115Z,96.0266
2019-05-11T01:38:45.808Z,96.1304
2019-05-11T01:38:56.483Z,96.2341
2019-05-11T01:39:06.247Z,96.2341
2019-05-11T01:39:16.999Z,96.2341
2019-05-11T01:39:25.569Z,96.2341
2019-05-11T01:39:37.458Z,96.4355
2019-05-11T01:39:47.174Z,96.6431
2019-05-11T01:39:56.710Z,96.7407
2019-05-11T01:40:06.442Z,96.8445
2019-05-11T01:40:16.124Z,96.9482
2019-05-11T01:40:25.812Z,97.0520
2019-05-11T01:40:37.509Z,97.1497
2019-05-11T01:40:58.097Z,97.2534
2019-05-11T01:40:59.035Z,97.2534
2019-05-11T01:41:06.802Z,97.2534
2019-05-11T01:41:16.520Z,97.2534
2019-05-11T01:41:26.202Z,97.3572
2019-05-11T01:41:37.695Z,97.4609
2019-05-11T01:41:47.402Z,97.4609
2019-05-11T01:41:57.158Z,97.3572
2019-05-11T01:42:06.828Z,97.4609
2019-05-11T01:42:16.522Z,97.4609
2019-05-11T01:42:26.218Z,97.5647
2019-05-11T01:42:35.961Z,97.5647
2019-05-11T01:42:57.790Z,97.6074
2019-05-11T01:43:07.468Z,97.7112
2019-05-11T01:43:17.169Z,97.5647
2019-05-11T01:43:26.858Z,97.6074
2019-05-11T01:43:36.617Z,97.5037
2019-05-11T01:43:47.318Z,97.4609
2019-05-11T01:43:57.008Z,97.5037
2019-05-11T01:44:06.717Z,97.6074
2019-05-11T01:44:16.404Z,97.6074
2019-05-11T01:44:26.469Z,97.5647
2019-05-11T01:44:36.411Z,97.7112
2019-05-11T01:44:46.200Z,97.8149
2019-05-11T01:44:55.716Z,97.8149
2019-05-11T01:45:05.418Z,97.9126
2019-05-11T01:45:17.264Z,97.9126
2019-05-11T01:45:25.993Z,97.9126
2019-05-11T01:45:35.688Z,98.0164
2019-05-11T01:45:45.397Z,98.0164
2019-05-11T01:45:57.287Z,98.1201
2019-05-11T01:46:06.968Z,98.2239
2019-05-11T01:46:16.674Z,98.1201
2019-05-11T01:46:26.343Z,98.1201
2019-05-11T01:46:36.037Z,98.1201
2019-05-11T01:46:45.706Z,98.1201
2019-05-11T01:46:55.419Z,98.1201
2019-05-11T01:47:07.305Z,98.2239
2019-05-11T01:47:17.000Z,98.3276
2019-05-11T01:47:26.688Z,98.3276
2019-05-11T01:47:36.378Z,98.3276
2019-05-11T01:47:46.086Z,98.3276
2019-05-11T01:47:55.830Z,98.3276
2019-05-11T01:48:05.532Z,98.3276
2019-05-11T01:48:17.439Z,98.3276
2019-05-11T01:48:27.138Z,98.2239
2019-05-11T01:48:36.908Z,98.2239
2019-05-11T01:48:45.596Z,98.2239
2019-05-11T01:48:57.494Z,98.1201
2019-05-11T01:49:07.197Z,98.1201
2019-05-11T01:49:16.896Z,98.1201
2019-05-11T01:49:26.598Z,98.0164
2019-05-11T01:49:36.289Z,97.9126
2019-05-11T01:49:45.964Z,97.9126
2019-05-11T01:49:55.655Z,97.8699
2019-05-11T01:50:05.374Z,97.8699
2019-05-11T01:50:17.246Z,97.9736
2019-05-11T01:50:25.968Z,97.8699
2019-05-11T01:50:35.623Z,97.6624
2019-05-11T01:50:47.518Z,97.8699
2019-05-11T01:50:57.239Z,98.1750
2019-05-11T01:51:06.984Z,98.3826
2019-05-11T01:51:16.720Z,98.5840
2019-05-11T01:51:37.340Z,98.6877
2019-05-11T01:51:55.754Z,98.6877
2019-05-11T01:52:05.586Z,98.7915
2019-05-11T01:52:17.467Z,98.7915
2019-05-11T01:52:27.169Z,98.8953
2019-05-11T01:52:36.874Z,98.8953
2019-05-11T01:52:46.758Z,98.8953
2019-05-11T01:52:56.466Z,98.8953
2019-05-11T01:53:07.385Z,98.8953
2019-05-11T01:53:17.100Z,98.7915
2019-05-11T01:53:26.805Z,98.7915
2019-05-11T01:53:36.552Z,98.7915
2019-05-11T01:53:48.121Z,98.7915
2019-05-11T01:53:55.723Z,98.7915
2019-05-11T01:54:05.394Z,98.8953
2019-05-11T01:54:17.303Z,98.8953
2019-05-11T01:54:27.012Z,98.9929
2019-05-11T01:54:36.718Z,99.0967
2019-05-11T01:54:46.397Z,99.2004
2019-05-11T01:54:56.076Z,99.3042
2019-05-11T01:55:05.816Z,99.3042
2019-05-11T01:55:16.718Z,99.3042
2019-05-11T01:55:27.384Z,99.3042
2019-05-11T01:55:38.114Z,99.3042
2019-05-11T01:55:46.617Z,99.4080
2019-05-11T01:55:56.319Z,99.4080
2019-05-11T01:56:07.199Z,99.5056
2019-05-11T01:56:16.927Z,99.5056
2019-05-11T01:56:25.969Z,99.5056
2019-05-11T01:56:35.659Z,99.5056
2019-05-11T01:56:56.216Z,99.6094
2019-05-11T01:57:05.944Z,99.6094
2019-05-11T01:57:17.109Z,99.6582
2019-05-11T01:57:26.807Z,99.6582
2019-05-11T01:57:36.533Z,99.7559
2019-05-11T01:57:46.214Z,99.7559
2019-05-11T01:57:56.901Z,99.7559
2019-05-11T01:58:05.394Z,99.7559
2019-05-11T01:58:17.257Z,99.8596
2019-05-11T01:58:26.938Z,99.8596
2019-05-11T01:58:35.444Z,99.8596
2019-05-11T01:58:47.355Z,99.8596
2019-05-11T01:58:57.007Z,99.9634
2019-05-11T01:59:06.692Z,99.9634
2019-05-11T01:59:16.356Z,99.9634
2019-05-11T01:59:26.085Z,99.9634
2019-05-11T01:59:37.004Z,99.9634
2019-05-11T01:59:45.730Z,99.9634
2019-05-11T01:59:55.419Z,99.9634
2019-05-11T02:00:07.329Z,99.9634
2019-05-11T02:00:17.016Z,99.9634
2019-05-11T02:00:26.677Z,99.9939
2019-05-11T02:00:36.367Z,99.9939
2019-05-11T02:00:46.060Z,99.9939
2019-05-11T02:00:57.757Z,99.9939
2019-05-11T02:01:07.449Z,99.9939
2019-05-11T02:01:17.169Z,99.9939
2019-05-11T02:01:26.894Z,99.9939
2019-05-11T02:01:36.567Z,99.9939
2019-05-11T02:01:46.267Z,99.9939
2019-05-11T02:01:55.942Z,99.9939
2019-05-11T02:02:05.659Z,99.9939
2019-05-11T02:02:17.497Z,99.9939
2019-05-11T02:02:27.266Z,99.9939
2019-05-11T02:02:36.987Z,99.9939
2019-05-11T02:02:46.696Z,99.9939
2019-05-11T02:02:56.357Z,99.9939
2019-05-11T02:03:06.019Z,99.9939
2019-05-11T02:03:15.701Z,99.9939
2019-05-11T02:03:25.378Z,99.9939
2019-05-11T02:03:37.385Z,99.9939
2019-05-11T02:03:47.066Z,99.9939
2019-05-11T02:03:56.788Z,99.9939
2019-05-11T02:04:05.476Z,99.9939
2019-05-11T02:04:15.463Z,99.9939
2019-05-11T02:04:26.438Z,99.9939
2019-05-11T02:04:36.108Z,99.9939
2019-05-11T02:04:45.768Z,99.9939
2019-05-11T02:04:55.436Z,99.9939
2019-05-11T02:05:06.231Z,99.9939
2019-05-11T02:05:16.984Z,99.9939
2019-05-11T02:05:26.657Z,99.9939
2019-05-11T02:05:36.386Z,99.9939
2019-05-11T02:05:46.078Z,99.9939
2019-05-11T02:05:55.756Z,99.9939
2019-05-11T02:06:05.468Z,99.9939
2019-05-11T02:06:17.318Z,99.9939
2019-05-11T02:06:27.002Z,99.9939
2019-05-11T02:06:36.704Z,99.9939